Pagina principală
METAR-TAF:

METAR-TAF

Aeroporturi :

DeRidder, Louisiana, Statele Unite ale Americii

Latitudine: 30-49-54N, longitudine: 093-20-23W, elevație: 63 m

Observații meteo curente

Raportul a fost făcut în urmă cu 34 de minute, la 20:55 UTC
Vânt 6 kt de la Sud
Temperatură 34°C
Umiditate 50%
Presiune 1016 hPa
Vizibilitate: 16.1 km
Nori împrăștiați la o înălțime de 5500 picior

METAR: KDRI 222055Z AUTO 19006KT 10SM SCT055 34/22 A2999 RMK AO2 T03370218

Ora: 16:29 (21:29 UTC)


TAF: lipsă

Observații și prognoze meteo pentru peste 4.000 de aeroporturi (rapoarte METAR și TAF).

Stațiile disponibile sunt reprezentate pe hartă prin puncte galbene și roșii.

Țineți indicatorul mouse-ului pe punctul dorit pentru a vedea denumirea stației.

Apoi, faceți clic pentru a vedea observațiile și prognozele meteorologice.

Pentru a schimba harta: Pentru mărire, faceți clic pe butoanele verzi cu cruce neagră; pentru micșorare, pe butonul verde cu o liniuță; pentru hărți învecinate, pe săgețile verzi.


METAR-TAF: